createdAt,value
2018-09-30T00:02:55.221Z,99.90
2018-09-30T00:07:58.435Z,99.90
2018-09-30T00:13:01.495Z,99.90
2018-09-30T00:18:04.599Z,99.90
2018-09-30T00:23:07.633Z,99.90
2018-09-30T00:28:10.627Z,99.90
2018-09-30T00:33:13.703Z,99.90
2018-09-30T00:38:16.893Z,99.90
2018-09-30T00:43:19.964Z,99.90
2018-09-30T00:48:23.012Z,99.90
2018-09-30T00:53:26.127Z,99.90
2018-09-30T00:58:29.175Z,99.90
2018-09-30T01:03:32.231Z,99.90
2018-09-30T01:08:35.637Z,99.90
2018-09-30T01:13:38.692Z,99.90
2018-09-30T01:18:41.708Z,99.90
2018-09-30T01:23:44.733Z,99.90
2018-09-30T01:28:47.765Z,99.90
2018-09-30T01:33:50.884Z,99.90
2018-09-30T01:38:53.930Z,99.90
2018-09-30T01:43:57.038Z,99.90
2018-09-30T01:49:00.044Z,99.90
2018-09-30T01:54:03.104Z,99.90
2018-09-30T01:59:06.219Z,99.90
2018-09-30T02:04:09.464Z,99.90
2018-09-30T02:09:12.475Z,99.90
2018-09-30T02:14:15.580Z,99.90
2018-09-30T02:19:18.652Z,99.90
2018-09-30T02:24:21.677Z,99.90
2018-09-30T02:29:24.680Z,99.90
2018-09-30T02:34:27.712Z,99.90
2018-09-30T02:39:30.763Z,99.90
2018-09-30T02:44:33.800Z,99.90
2018-09-30T02:49:36.835Z,99.90
2018-09-30T02:54:39.912Z,99.90
2018-09-30T02:59:42.928Z,99.90
2018-09-30T03:04:46.022Z,99.90
2018-09-30T03:09:49.056Z,99.90
2018-09-30T03:14:52.108Z,99.90
2018-09-30T03:19:55.136Z,99.90
2018-09-30T03:24:58.153Z,99.90
2018-09-30T03:30:01.170Z,99.90
2018-09-30T03:35:04.255Z,99.90
2018-09-30T03:40:07.605Z,99.90
2018-09-30T03:45:10.677Z,99.90
2018-09-30T03:50:13.677Z,99.90
2018-09-30T03:55:16.768Z,99.90
2018-09-30T04:00:19.876Z,99.90
2018-09-30T04:05:22.904Z,99.90
2018-09-30T04:10:25.934Z,99.90
2018-09-30T04:15:28.932Z,99.90
2018-09-30T04:20:31.991Z,99.90
2018-09-30T04:25:35.023Z,99.90
2018-09-30T04:30:38.037Z,99.90
2018-09-30T04:35:41.187Z,99.90
2018-09-30T04:40:44.228Z,99.90
2018-09-30T04:45:48.168Z,99.90
2018-09-30T04:50:51.243Z,99.90
2018-09-30T04:55:54.277Z,99.90
2018-09-30T05:00:57.303Z,99.90
2018-09-30T05:06:00.392Z,99.90
2018-09-30T05:11:03.464Z,99.90
2018-09-30T05:16:06.682Z,99.90
2018-09-30T05:21:09.752Z,99.90
2018-09-30T05:26:12.775Z,99.90
2018-09-30T05:31:15.878Z,99.90
2018-09-30T05:36:18.888Z,99.90
2018-09-30T05:41:21.929Z,99.90
2018-09-30T05:46:24.992Z,99.90
2018-09-30T05:51:28.181Z,99.90
2018-09-30T05:56:31.220Z,99.90
2018-09-30T06:01:34.318Z,99.90
2018-09-30T06:06:37.343Z,99.90
2018-09-30T06:11:40.672Z,99.90
2018-09-30T06:16:43.903Z,99.90
2018-09-30T06:21:46.964Z,99.90
2018-09-30T06:26:50.105Z,99.90
2018-09-30T06:31:53.250Z,99.90
2018-09-30T06:36:56.247Z,99.90
2018-09-30T06:41:59.329Z,99.90
2018-09-30T06:47:02.360Z,99.90
2018-09-30T06:52:05.421Z,99.90
2018-09-30T06:57:08.437Z,99.90
2018-09-30T07:02:11.568Z,99.90
2018-09-30T07:07:14.614Z,99.90
2018-09-30T07:12:17.648Z,99.90
2018-09-30T07:17:21.059Z,99.90
2018-09-30T07:22:24.312Z,95.90
2018-09-30T07:27:27.299Z,92.40
2018-09-30T07:32:30.422Z,87.50
2018-09-30T07:37:33.491Z,89.30
2018-09-30T07:42:36.615Z,88.70
2018-09-30T07:47:39.684Z,89.50
2018-09-30T07:52:42.830Z,82.70
2018-09-30T07:57:45.915Z,72.20
2018-09-30T08:02:49.017Z,73.30
2018-09-30T08:07:52.057Z,71.00
2018-09-30T08:12:55.335Z,67.70
2018-09-30T08:17:58.371Z,63.40
2018-09-30T08:23:01.470Z,66.80
2018-09-30T08:33:14.226Z,63.20
2018-09-30T08:38:22.779Z,63.10
2018-09-30T08:43:25.854Z,65.30
2018-09-30T08:48:28.884Z,67.50
2018-09-30T08:53:33.093Z,74.30
2018-09-30T08:58:36.312Z,79.80
2018-09-30T09:03:39.512Z,84.20
2018-09-30T09:08:42.870Z,82.90
2018-09-30T09:13:45.910Z,83.80
2018-09-30T09:18:48.949Z,84.20
2018-09-30T09:23:51.985Z,84.70
2018-09-30T09:28:55.040Z,84.80
2018-09-30T09:33:58.103Z,82.30
2018-09-30T09:39:01.803Z,82.00
2018-09-30T09:44:04.895Z,79.90
2018-09-30T09:49:07.931Z,79.00
2018-09-30T09:54:11.049Z,81.50
2018-09-30T09:59:14.186Z,82.00
2018-09-30T10:04:17.187Z,80.80
2018-09-30T10:09:20.230Z,76.40
2018-09-30T10:14:23.384Z,76.40
2018-09-30T10:19:26.505Z,74.80
2018-09-30T10:24:29.624Z,75.20
2018-09-30T10:29:32.675Z,75.50
2018-09-30T10:34:35.735Z,73.30
2018-09-30T10:39:38.805Z,72.30
2018-09-30T10:44:42.482Z,72.10
2018-09-30T10:49:45.543Z,73.30
2018-09-30T10:54:48.626Z,71.90
2018-09-30T10:59:51.683Z,70.70
2018-09-30T11:04:54.765Z,70.40
2018-09-30T11:09:57.853Z,69.70
2018-09-30T11:15:00.904Z,68.00
2018-09-30T11:20:03.935Z,69.90
2018-09-30T11:25:06.994Z,68.30
2018-09-30T11:30:10.068Z,68.70
2018-09-30T11:35:13.132Z,66.40
2018-09-30T11:40:16.147Z,66.10
2018-09-30T11:45:19.212Z,67.20
2018-09-30T11:50:22.246Z,67.30
2018-09-30T11:55:25.275Z,66.70
2018-09-30T12:00:28.279Z,65.70
2018-09-30T12:05:31.346Z,64.80
2018-09-30T12:10:34.468Z,64.40
2018-09-30T12:15:37.483Z,63.80
2018-09-30T12:20:40.496Z,64.80
2018-09-30T12:25:43.655Z,65.10
2018-09-30T12:30:46.961Z,61.40
2018-09-30T12:35:50.003Z,61.90
2018-09-30T12:40:53.086Z,63.00
2018-09-30T12:45:56.124Z,61.00
2018-09-30T12:50:59.300Z,61.90
2018-09-30T12:56:02.402Z,59.70
2018-09-30T13:01:05.423Z,59.20
2018-09-30T13:06:08.429Z,60.60
2018-09-30T13:11:11.503Z,60.10
2018-09-30T13:16:14.539Z,58.20
2018-09-30T13:21:17.877Z,58.10
2018-09-30T13:26:20.964Z,58.00
2018-09-30T13:31:24.565Z,58.10
2018-09-30T13:36:28.131Z,58.10
2018-09-30T13:41:31.246Z,56.90
2018-09-30T13:46:34.268Z,57.00
2018-09-30T13:51:37.443Z,56.90
2018-09-30T13:56:40.520Z,57.40
2018-09-30T14:01:43.533Z,56.50
2018-09-30T14:06:46.635Z,55.50
2018-09-30T14:11:49.655Z,55.00
2018-09-30T14:16:52.703Z,54.80
2018-09-30T14:21:55.752Z,55.10
2018-09-30T14:26:58.818Z,56.10
2018-09-30T14:32:02.119Z,55.10
2018-09-30T14:37:05.175Z,54.90
2018-09-30T14:42:08.195Z,55.90
2018-09-30T14:47:11.201Z,54.80
2018-09-30T14:52:14.268Z,55.80
2018-09-30T14:57:17.303Z,55.50
2018-09-30T15:02:20.400Z,57.00
2018-09-30T15:07:23.977Z,57.10
2018-09-30T15:12:27.033Z,55.60
2018-09-30T15:17:30.279Z,55.70
2018-09-30T15:22:33.268Z,54.30
2018-09-30T15:27:36.364Z,54.80
2018-09-30T15:32:39.486Z,55.30
2018-09-30T15:37:42.569Z,54.40
2018-09-30T15:42:45.646Z,55.90
2018-09-30T15:47:48.725Z,54.80
2018-09-30T15:52:51.812Z,55.00
2018-09-30T15:57:54.862Z,56.10
2018-09-30T16:02:57.904Z,57.00
2018-09-30T16:08:01.019Z,59.50
2018-09-30T16:13:04.105Z,59.80
2018-09-30T16:18:07.218Z,61.00
2018-09-30T16:23:10.217Z,62.20
2018-09-30T16:28:13.383Z,66.10
2018-09-30T16:33:16.424Z,70.40
2018-09-30T16:38:19.563Z,75.30
2018-09-30T16:43:22.639Z,79.50
2018-09-30T16:48:25.658Z,85.30
2018-09-30T16:53:28.699Z,87.20
2018-09-30T16:58:31.866Z,90.30
2018-09-30T17:03:34.968Z,92.80
2018-09-30T17:08:38.019Z,93.80
2018-09-30T17:13:41.076Z,96.00
2018-09-30T17:18:44.095Z,98.50
2018-09-30T17:23:47.144Z,99.90
2018-09-30T17:28:50.186Z,99.90
2018-09-30T17:33:53.228Z,99.90
2018-09-30T17:38:56.373Z,99.90
2018-09-30T17:43:59.522Z,99.90
2018-09-30T17:49:02.516Z,99.90
2018-09-30T17:54:05.577Z,99.90
2018-09-30T17:59:08.639Z,99.90
2018-09-30T18:04:11.785Z,99.90
2018-09-30T18:09:14.955Z,99.90
2018-09-30T18:14:18.063Z,99.90
2018-09-30T18:19:21.124Z,99.90
2018-09-30T18:24:24.188Z,99.90
2018-09-30T18:29:28.235Z,99.90
2018-09-30T18:34:31.305Z,99.90
2018-09-30T18:39:34.320Z,99.90
2018-09-30T18:44:37.387Z,99.90
2018-09-30T18:49:40.570Z,99.90
2018-09-30T18:54:43.637Z,99.90
2018-09-30T18:59:46.643Z,99.90
2018-09-30T19:04:49.684Z,99.90
2018-09-30T19:09:52.739Z,99.90
2018-09-30T19:14:55.877Z,99.90
2018-09-30T19:19:58.892Z,99.90
2018-09-30T19:25:01.987Z,99.90
2018-09-30T19:30:05.225Z,99.90
2018-09-30T19:35:08.196Z,99.90
2018-09-30T19:40:11.255Z,99.90
2018-09-30T19:45:14.300Z,99.90
2018-09-30T19:50:17.363Z,99.90
2018-09-30T19:55:20.407Z,99.90
2018-09-30T20:00:23.528Z,99.90
2018-09-30T20:05:26.556Z,99.90
2018-09-30T20:10:29.651Z,99.90
2018-09-30T20:15:32.733Z,99.90
2018-09-30T20:20:35.894Z,99.90
2018-09-30T20:25:38.909Z,99.90
2018-09-30T20:30:42.028Z,99.90
2018-09-30T20:35:45.064Z,99.90
2018-09-30T20:40:48.173Z,99.90
2018-09-30T20:45:51.175Z,99.90
2018-09-30T20:50:54.224Z,99.90
2018-09-30T20:55:57.447Z,99.90
2018-09-30T21:01:00.480Z,99.90
2018-09-30T21:06:36.551Z,99.90
2018-09-30T21:11:39.768Z,99.90
2018-09-30T21:16:42.847Z,99.90
2018-09-30T21:21:45.879Z,99.90
2018-09-30T21:26:48.984Z,99.90
2018-09-30T21:31:52.108Z,99.90
2018-09-30T21:36:55.121Z,99.90
2018-09-30T21:41:58.167Z,99.90
2018-09-30T21:47:01.207Z,99.90
2018-09-30T21:52:04.244Z,99.90
2018-09-30T21:57:07.303Z,99.90
2018-09-30T22:02:10.336Z,99.90
2018-09-30T22:07:13.379Z,99.90
2018-09-30T22:12:16.437Z,99.90
2018-09-30T22:17:19.499Z,99.90
2018-09-30T22:22:22.672Z,99.90
2018-09-30T22:27:25.676Z,99.90
2018-09-30T22:32:28.663Z,99.90
2018-09-30T22:37:31.713Z,99.90
2018-09-30T22:42:34.740Z,99.90
2018-09-30T22:47:37.991Z,99.90
2018-09-30T22:52:41.057Z,99.90
2018-09-30T22:57:44.117Z,99.90
2018-09-30T23:02:47.240Z,99.90
2018-09-30T23:07:50.319Z,99.90
2018-09-30T23:12:53.379Z,99.90
2018-09-30T23:17:56.418Z,99.90
2018-09-30T23:23:00.505Z,99.90
2018-09-30T23:28:03.544Z,99.90
2018-09-30T23:33:06.666Z,99.90
2018-09-30T23:38:09.744Z,99.90
2018-09-30T23:43:12.773Z,99.90
2018-09-30T23:48:15.784Z,99.90
2018-09-30T23:53:18.792Z,99.90
2018-09-30T23:58:22.701Z,99.90
